Time;durP1;ratioP1;P1;durP2;ratioP2;P2;SDS_P1;SDS_P2;PMS_P1;PMS_P2;Temp;Humidity;BMP_temperature;BMP_pressure;BME280_temperature;BME280_humidity;BME280_pressure;Samples;Min_cycle;Max_cycle;Signal;HPM_P1;HPM_P2
2024/01/05 00:00:17;;;;;;;;;;;5.80;99.90;;;;;;5090940;28;19924;-70
2024/01/05 00:02:45;;;;;;;;;;;5.90;99.90;;;;;;5089580;28;19924;-70
2024/01/05 00:05:11;;;;;;;;;;;5.90;99.90;;;;;;5091205;28;19924;-69
2024/01/05 00:07:38;;;;;;;;;;;5.90;99.90;;;;;;5091623;28;20414;-69
2024/01/05 00:10:05;;;;;;;;;;;6.00;99.90;;;;;;5088220;28;19928;-69
2024/01/05 00:12:31;;;;;;;;;;;6.00;99.90;;;;;;5092065;28;20382;-69
2024/01/05 00:14:58;;;;;;;;;;;6.00;99.90;;;;;;5091778;28;19928;-69
2024/01/05 00:17:24;;;;;;;;;;;6.10;99.90;;;;;;5090810;28;19957;-69
2024/01/05 00:19:52;;;;;;;;;;;6.10;99.90;;;;;;5091399;28;19928;-67
2024/01/05 00:22:19;;;;;;;;;;;6.20;99.90;;;;;;5091162;28;19928;-69
2024/01/05 00:24:45;;;;;;;;;;;6.20;99.90;;;;;;5091388;28;19970;-69
2024/01/05 00:27:12;;;;;;;;;;;6.20;99.90;;;;;;5091323;28;19924;-69
2024/01/05 00:29:38;;;;;;;;;;;6.20;99.90;;;;;;5088740;28;20313;-69
2024/01/05 00:32:05;;;;;;;;;;;6.30;99.90;;;;;;5086044;28;19924;-69
2024/01/05 00:34:31;;;;;;;;;;;6.30;99.90;;;;;;5090689;28;19928;-69
2024/01/05 00:36:59;;;;;;;;;;;6.30;99.90;;;;;;5091457;28;19928;-69
2024/01/05 00:39:25;;;;;;;;;;;6.40;99.90;;;;;;5091403;28;20569;-69
2024/01/05 00:41:52;;;;;;;;;;;6.40;99.90;;;;;;5091618;28;19924;-69
2024/01/05 00:44:19;;;;;;;;;;;6.40;99.90;;;;;;5091603;28;19925;-69
2024/01/05 00:46:46;;;;;;;;;;;6.40;99.90;;;;;;5086745;28;19924;-69
2024/01/05 00:49:12;;;;;;;;;;;6.40;99.90;;;;;;5094109;28;20100;-69
2024/01/05 00:51:39;;;;;;;;;;;6.40;99.90;;;;;;5087755;28;19924;-69
2024/01/05 00:54:07;;;;;;;;;;;6.40;99.90;;;;;;5087040;28;19924;-69
2024/01/05 00:56:33;;;;;;;;;;;6.40;99.90;;;;;;5091583;28;20459;-69
2024/01/05 00:59:00;;;;;;;;;;;6.40;99.90;;;;;;5091421;28;19950;-69
2024/01/05 01:01:26;;;;;;;;;;;6.40;99.90;;;;;;5091369;28;19977;-69
2024/01/05 01:03:54;;;;;;;;;;;6.40;99.90;;;;;;5091083;28;20353;-69
2024/01/05 01:06:20;;;;;;;;;;;6.40;99.90;;;;;;5091497;28;19924;-69
2024/01/05 01:08:47;;;;;;;;;;;6.40;99.90;;;;;;5090558;28;19924;-69
2024/01/05 01:11:15;;;;;;;;;;;6.30;99.90;;;;;;5092367;28;20435;-69
2024/01/05 01:13:42;;;;;;;;;;;6.30;99.90;;;;;;5094791;28;19931;-69
2024/01/05 01:16:08;;;;;;;;;;;6.20;99.90;;;;;;5094990;28;19932;-69
2024/01/05 01:18:35;;;;;;;;;;;6.20;99.90;;;;;;5093918;28;19928;-69
2024/01/05 01:21:01;;;;;;;;;;;6.20;99.90;;;;;;5094642;28;19977;-69
2024/01/05 01:23:28;;;;;;;;;;;6.30;99.90;;;;;;5093949;28;19928;-69
2024/01/05 01:25:54;;;;;;;;;;;6.20;99.90;;;;;;5094997;28;19985;-69
2024/01/05 01:28:22;;;;;;;;;;;6.20;99.90;;;;;;5093714;28;19927;-67
2024/01/05 01:30:48;;;;;;;;;;;6.20;99.90;;;;;;5092344;28;20454;-67
2024/01/05 01:33:15;;;;;;;;;;;6.20;99.90;;;;;;5094596;28;19977;-66
2024/01/05 01:35:41;;;;;;;;;;;6.20;99.90;;;;;;5094631;28;19951;-66
2024/01/05 01:38:08;;;;;;;;;;;6.20;99.90;;;;;;5094602;28;19928;-69
2024/01/05 01:40:34;;;;;;;;;;;6.30;99.90;;;;;;5094404;28;19928;-69
2024/01/05 01:43:01;;;;;;;;;;;6.20;99.90;;;;;;5094337;28;19969;-69
2024/01/05 01:45:29;;;;;;;;;;;6.20;99.90;;;;;;5089588;28;19978;-69
2024/01/05 01:47:55;;;;;;;;;;;6.20;99.90;;;;;;5094195;28;20382;-69
2024/01/05 01:50:24;;;;;;;;;;;6.10;99.90;;;;;;5095196;28;19924;-69
2024/01/05 01:52:51;;;;;;;;;;;6.10;99.90;;;;;;5088486;28;19924;-69
2024/01/05 01:55:18;;;;;;;;;;;6.10;99.90;;;;;;5093993;28;19931;-69
2024/01/05 01:57:44;;;;;;;;;;;6.10;99.90;;;;;;5094024;28;19928;-69
2024/01/05 02:00:13;;;;;;;;;;;6.00;99.90;;;;;;5093840;28;19932;-69
2024/01/05 02:02:41;;;;;;;;;;;6.00;99.90;;;;;;5091146;28;20023;-69
2024/01/05 02:05:08;;;;;;;;;;;6.00;99.90;;;;;;5093828;28;20356;-69
2024/01/05 02:07:34;;;;;;;;;;;6.00;99.90;;;;;;5093906;28;19958;-69
2024/01/05 02:10:01;;;;;;;;;;;5.90;99.90;;;;;;5093809;28;19927;-70
2024/01/05 02:12:27;;;;;;;;;;;6.00;99.90;;;;;;5093428;28;19969;-69
2024/01/05 02:14:54;;;;;;;;;;;6.00;99.90;;;;;;5091849;28;19928;-69
2024/01/05 02:17:33;;;;;;;;;;;5.90;99.90;;;;;;5089860;28;19924;-69
2024/01/05 02:20:01;;;;;;;;;;;6.00;99.90;;;;;;5093542;28;20279;-69
2024/01/05 02:22:28;;;;;;;;;;;5.90;99.90;;;;;;5093225;28;19924;-69
2024/01/05 02:24:56;;;;;;;;;;;5.90;99.90;;;;;;5093471;28;19989;-69
2024/01/05 02:27:23;;;;;;;;;;;5.90;99.90;;;;;;5093409;28;19977;-69
2024/01/05 02:29:49;;;;;;;;;;;5.80;99.90;;;;;;5086685;28;19993;-69
2024/01/05 02:32:17;;;;;;;;;;;5.80;99.90;;;;;;5093625;28;19927;-69
2024/01/05 02:34:44;;;;;;;;;;;5.80;99.90;;;;;;5093407;28;19985;-69
2024/01/05 02:37:10;;;;;;;;;;;5.80;99.90;;;;;;5093514;28;19981;-69
2024/01/05 02:39:37;;;;;;;;;;;5.70;99.90;;;;;;5093488;28;19936;-69
2024/01/05 02:42:05;;;;;;;;;;;5.70;99.90;;;;;;5093531;28;20393;-69
2024/01/05 02:44:31;;;;;;;;;;;5.70;99.90;;;;;;5093288;28;19977;-69
2024/01/05 02:46:58;;;;;;;;;;;5.70;99.90;;;;;;5093343;28;19992;-69
2024/01/05 02:49:24;;;;;;;;;;;5.60;99.90;;;;;;5091976;28;19924;-69
2024/01/05 02:51:51;;;;;;;;;;;5.50;99.90;;;;;;5093044;28;20451;-69
2024/01/05 02:54:18;;;;;;;;;;;5.50;99.90;;;;;;5092910;28;20203;-69
2024/01/05 02:56:45;;;;;;;;;;;5.60;99.90;;;;;;5093166;28;19970;-69
2024/01/05 02:59:13;;;;;;;;;;;5.50;99.90;;;;;;5091092;28;19924;-69
2024/01/05 03:01:39;;;;;;;;;;;5.50;99.90;;;;;;5092430;28;20007;-69
2024/01/05 03:04:06;;;;;;;;;;;5.60;99.90;;;;;;5092084;28;20345;-68
2024/01/05 03:06:32;;;;;;;;;;;5.60;99.90;;;;;;5092776;28;19928;-69
2024/01/05 03:08:59;;;;;;;;;;;5.60;99.90;;;;;;5092614;28;20291;-69
2024/01/05 03:11:26;;;;;;;;;;;5.60;99.90;;;;;;5092794;28;19924;-69
2024/01/05 03:13:52;;;;;;;;;;;5.60;99.90;;;;;;5089880;28;20402;-69
2024/01/05 03:16:20;;;;;;;;;;;5.60;99.90;;;;;;5092788;28;19978;-69
2024/01/05 03:18:47;;;;;;;;;;;5.50;99.90;;;;;;5092573;28;19924;-69
2024/01/05 03:21:13;;;;;;;;;;;5.50;99.90;;;;;;5089786;28;19928;-69
2024/01/05 03:23:40;;;;;;;;;;;5.40;99.90;;;;;;5091771;28;19936;-69
2024/01/05 03:26:08;;;;;;;;;;;5.40;99.90;;;;;;5092561;28;19927;-69
2024/01/05 03:28:35;;;;;;;;;;;5.40;99.90;;;;;;5090574;28;19977;-69
2024/01/05 03:31:02;;;;;;;;;;;5.40;99.90;;;;;;5091804;28;19924;-69
2024/01/05 03:33:29;;;;;;;;;;;5.40;99.90;;;;;;5091570;28;19928;-69
2024/01/05 03:35:56;;;;;;;;;;;5.50;99.90;;;;;;5092135;28;19977;-69
2024/01/05 03:38:22;;;;;;;;;;;5.50;99.90;;;;;;5092386;28;19924;-69
2024/01/05 03:40:49;;;;;;;;;;;5.50;99.90;;;;;;5092306;28;20318;-69
2024/01/05 03:43:15;;;;;;;;;;;5.50;99.90;;;;;;5092304;28;19969;-69
2024/01/05 03:45:42;;;;;;;;;;;5.50;99.90;;;;;;5091361;28;19932;-69
2024/01/05 03:48:08;;;;;;;;;;;5.50;99.90;;;;;;5092332;28;19928;-69
2024/01/05 03:50:36;;;;;;;;;;;5.60;99.90;;;;;;5095137;28;19924;-69
2024/01/05 03:53:03;;;;;;;;;;;5.50;99.90;;;;;;5092025;28;20390;-69
2024/01/05 03:55:29;;;;;;;;;;;5.50;99.90;;;;;;5087553;28;19993;-69
2024/01/05 03:57:55;;;;;;;;;;;5.50;99.90;;;;;;5091718;28;19924;-69
2024/01/05 04:00:22;;;;;;;;;;;5.50;99.90;;;;;;5089706;28;20344;-69
2024/01/05 04:02:49;;;;;;;;;;;5.50;99.90;;;;;;5087691;28;19969;-69
2024/01/05 04:05:15;;;;;;;;;;;5.40;99.90;;;;;;5090874;28;19951;-69
2024/01/05 04:07:43;;;;;;;;;;;5.40;99.90;;;;;;5091193;28;20424;-69
2024/01/05 04:10:10;;;;;;;;;;;5.40;99.90;;;;;;5091514;28;19924;-69
2024/01/05 04:12:36;;;;;;;;;;;5.30;99.90;;;;;;5091266;28;20344;-69
2024/01/05 04:15:03;;;;;;;;;;;5.30;99.90;;;;;;5091530;28;20060;-69
2024/01/05 04:17:30;;;;;;;;;;;5.30;99.90;;;;;;5091650;28;20411;-69
2024/01/05 04:19:56;;;;;;;;;;;5.30;99.90;;;;;;5091557;28;20403;-67
2024/01/05 04:22:23;;;;;;;;;;;5.30;99.90;;;;;;5086467;28;19970;-67
2024/01/05 04:24:51;;;;;;;;;;;5.30;99.90;;;;;;5091622;28;20374;-67
2024/01/05 04:27:17;;;;;;;;;;;5.20;99.90;;;;;;5089714;28;19924;-68
2024/01/05 04:29:44;;;;;;;;;;;5.20;99.90;;;;;;5090921;28;19985;-68
2024/01/05 04:32:10;;;;;;;;;;;5.20;99.90;;;;;;5089741;28;20114;-69
2024/01/05 04:34:37;;;;;;;;;;;5.20;99.90;;;;;;5091341;28;19928;-67
2024/01/05 04:37:04;;;;;;;;;;;5.20;99.90;;;;;;5091637;28;19924;-67
2024/01/05 04:39:30;;;;;;;;;;;5.30;99.90;;;;;;5091377;28;19977;-67
2024/01/05 04:41:58;;;;;;;;;;;5.30;99.90;;;;;;5091678;28;20386;-68
2024/01/05 04:44:24;;;;;;;;;;;5.30;99.90;;;;;;5091684;28;19928;-68
2024/01/05 04:46:51;;;;;;;;;;;5.30;99.90;;;;;;5095595;28;20383;-68
2024/01/05 04:49:17;;;;;;;;;;;5.30;99.90;;;;;;5100661;28;19924;-67
2024/01/05 04:51:44;;;;;;;;;;;5.30;99.90;;;;;;5094673;28;19950;-67
2024/01/05 04:54:10;;;;;;;;;;;5.40;99.90;;;;;;5095524;28;19954;-67
2024/01/05 04:56:37;;;;;;;;;;;5.30;99.90;;;;;;5095339;28;19950;-68
2024/01/05 04:59:05;;;;;;;;;;;5.40;99.90;;;;;;5090614;28;19950;-67
2024/01/05 05:01:31;;;;;;;;;;;5.40;99.90;;;;;;5095226;28;19928;-67
2024/01/05 05:03:58;;;;;;;;;;;5.40;99.90;;;;;;5095197;28;19977;-67
2024/01/05 05:06:24;;;;;;;;;;;5.30;99.90;;;;;;5091124;28;19970;-67
2024/01/05 05:08:51;;;;;;;;;;;5.30;99.90;;;;;;5093965;28;20441;-67
2024/01/05 05:11:17;;;;;;;;;;;5.30;99.90;;;;;;5094534;28;19977;-68
2024/01/05 05:13:44;;;;;;;;;;;5.30;99.90;;;;;;5094752;28;20031;-68
2024/01/05 05:16:12;;;;;;;;;;;5.30;99.90;;;;;;5094986;28;20441;-69
2024/01/05 05:18:38;;;;;;;;;;;5.30;99.90;;;;;;5095172;28;20064;-67
2024/01/05 05:21:05;;;;;;;;;;;5.30;99.90;;;;;;5087111;28;20393;-68
2024/01/05 05:23:31;;;;;;;;;;;5.40;99.90;;;;;;5094813;28;19928;-68
2024/01/05 05:25:58;;;;;;;;;;;5.40;99.90;;;;;;5094415;28;19924;-67
2024/01/05 05:28:24;;;;;;;;;;;5.40;99.90;;;;;;5093711;28;19930;-67
2024/01/05 05:30:51;;;;;;;;;;;5.40;99.90;;;;;;5090584;28;20352;-68
2024/01/05 05:33:19;;;;;;;;;;;5.40;99.90;;;;;;5094867;28;19924;-68
2024/01/05 05:35:46;;;;;;;;;;;5.40;99.90;;;;;;5094573;28;19924;-67
2024/01/05 05:38:12;;;;;;;;;;;5.40;99.90;;;;;;5094732;28;19928;-67
2024/01/05 05:40:39;;;;;;;;;;;5.40;99.90;;;;;;5093534;28;19985;-67
2024/01/05 05:43:05;;;;;;;;;;;5.30;99.90;;;;;;5087438;28;20453;-67
2024/01/05 05:45:31;;;;;;;;;;;5.40;99.90;;;;;;5094654;28;19936;-68
2024/01/05 05:47:59;;;;;;;;;;;5.30;99.90;;;;;;5094581;28;19932;-68
2024/01/05 05:50:27;;;;;;;;;;;5.40;99.90;;;;;;5100125;28;19931;-67
2024/01/05 05:52:53;;;;;;;;;;;5.30;99.90;;;;;;5093918;28;19928;-67
2024/01/05 05:55:20;;;;;;;;;;;5.30;99.90;;;;;;5088693;28;19928;-67
2024/01/05 05:57:47;;;;;;;;;;;5.40;99.90;;;;;;5093161;28;19924;-67
2024/01/05 06:00:14;;;;;;;;;;;5.40;99.90;;;;;;5092225;28;19977;-67
2024/01/05 06:02:40;;;;;;;;;;;5.40;99.90;;;;;;5091607;28;19943;-67
2024/01/05 06:05:07;;;;;;;;;;;5.40;99.90;;;;;;5094152;28;19924;-67
2024/01/05 06:07:35;;;;;;;;;;;5.40;99.90;;;;;;5093978;28;19924;-67
2024/01/05 06:10:02;;;;;;;;;;;5.40;99.90;;;;;;5093573;28;20374;-67
2024/01/05 06:12:29;;;;;;;;;;;5.40;99.90;;;;;;5089633;28;19924;-69
2024/01/05 06:14:55;;;;;;;;;;;5.40;99.90;;;;;;5085049;28;19936;-67
2024/01/05 06:17:22;;;;;;;;;;;5.40;99.90;;;;;;5087711;28;20363;-67
2024/01/05 06:19:48;;;;;;;;;;;5.40;99.90;;;;;;5092901;28;19946;-67
2024/01/05 06:22:15;;;;;;;;;;;5.40;99.90;;;;;;5093778;28;19924;-67
2024/01/05 06:24:44;;;;;;;;;;;5.40;99.90;;;;;;5091684;28;20394;-67
2024/01/05 06:27:11;;;;;;;;;;;5.40;99.90;;;;;;5083004;28;19924;-67
2024/01/05 06:29:37;;;;;;;;;;;5.40;99.90;;;;;;5091711;28;19924;-68
2024/01/05 06:32:04;;;;;;;;;;;5.40;99.90;;;;;;5088086;28;19928;-68
2024/01/05 06:34:31;;;;;;;;;;;5.40;99.90;;;;;;5091584;28;19977;-68
2024/01/05 06:36:57;;;;;;;;;;;5.40;99.90;;;;;;5091169;28;20394;-67
2024/01/05 06:39:24;;;;;;;;;;;5.40;99.90;;;;;;5087889;28;20181;-67
2024/01/05 06:41:51;;;;;;;;;;;5.40;99.90;;;;;;5090563;28;19924;-67
2024/01/05 06:44:18;;;;;;;;;;;5.40;99.90;;;;;;5084610;28;19925;-68
2024/01/05 06:46:44;;;;;;;;;;;5.40;99.90;;;;;;5090658;28;20429;-67
2024/01/05 06:49:11;;;;;;;;;;;5.50;99.90;;;;;;5097345;28;19927;-67
2024/01/05 06:51:37;;;;;;;;;;;5.50;99.90;;;;;;5095686;28;20367;-68
2024/01/05 06:54:04;;;;;;;;;;;5.40;99.90;;;;;;5085018;28;19931;-67
2024/01/05 06:56:32;;;;;;;;;;;5.40;99.90;;;;;;5090975;28;19996;-67
2024/01/05 06:59:00;;;;;;;;;;;5.40;99.90;;;;;;5087064;28;19931;-67
2024/01/05 07:01:26;;;;;;;;;;;5.40;99.90;;;;;;5092689;28;19928;-66
2024/01/05 07:03:53;;;;;;;;;;;5.40;99.90;;;;;;5085571;28;19932;-65
2024/01/05 07:06:19;;;;;;;;;;;5.40;99.90;;;;;;5090518;28;20352;-66
2024/01/05 07:08:46;;;;;;;;;;;5.40;99.90;;;;;;5091681;28;19928;-66
2024/01/05 07:11:19;;;;;;;;;;;5.40;99.90;;;;;;5092693;28;19935;-65
2024/01/05 07:13:46;;;;;;;;;;;5.40;99.90;;;;;;5086032;28;19977;-66
2024/01/05 07:16:16;;;;;;;;;;;5.40;99.90;;;;;;5092399;28;19935;-66
2024/01/05 07:18:42;;;;;;;;;;;5.40;99.90;;;;;;5090557;28;19932;-70
2024/01/05 07:21:09;;;;;;;;;;;5.50;99.90;;;;;;5092597;28;19985;-69
2024/01/05 07:23:36;;;;;;;;;;;5.70;99.90;;;;;;5084920;28;19934;-70
2024/01/05 07:26:03;;;;;;;;;;;5.70;99.90;;;;;;5088473;28;19932;-70
2024/01/05 07:28:29;;;;;;;;;;;5.80;99.90;;;;;;5089566;28;19985;-70
2024/01/05 07:30:56;;;;;;;;;;;5.80;99.90;;;;;;5090943;28;19977;-69
2024/01/05 07:33:23;;;;;;;;;;;5.70;99.90;;;;;;5085503;28;19932;-65
2024/01/05 07:35:50;;;;;;;;;;;5.70;99.90;;;;;;5092259;28;20455;-65
2024/01/05 07:38:16;;;;;;;;;;;5.70;99.90;;;;;;5092045;28;19924;-65
2024/01/05 07:40:43;;;;;;;;;;;5.70;99.90;;;;;;5091636;28;19934;-65
2024/01/05 07:43:12;;;;;;;;;;;5.70;99.90;;;;;;5090312;28;19928;-65
2024/01/05 07:45:39;;;;;;;;;;;5.70;99.90;;;;;;5086267;28;19924;-65
2024/01/05 07:48:06;;;;;;;;;;;5.70;99.90;;;;;;5083683;28;19932;-65
2024/01/05 07:50:34;;;;;;;;;;;5.70;99.90;;;;;;5095321;28;19928;-65
2024/01/05 07:53:01;;;;;;;;;;;5.70;99.90;;;;;;5082464;28;19932;-65
2024/01/05 07:55:27;;;;;;;;;;;5.70;99.90;;;;;;5091360;28;19928;-65
2024/01/05 07:57:54;;;;;;;;;;;5.70;99.90;;;;;;5086606;28;20393;-65
2024/01/05 08:00:20;;;;;;;;;;;5.70;99.90;;;;;;5084823;28;19924;-65
2024/01/05 08:02:47;;;;;;;;;;;5.70;99.90;;;;;;5083087;28;19990;-65
2024/01/05 08:05:13;;;;;;;;;;;5.70;99.90;;;;;;5086261;28;19978;-65
2024/01/05 08:07:44;;;;;;;;;;;5.70;99.90;;;;;;5088319;28;19977;-65
2024/01/05 08:10:11;;;;;;;;;;;5.70;99.90;;;;;;5088402;28;19924;-65
2024/01/05 08:12:37;;;;;;;;;;;5.70;99.90;;;;;;5086600;28;19947;-65
2024/01/05 08:15:04;;;;;;;;;;;5.80;99.90;;;;;;5086179;28;20528;-65
2024/01/05 08:17:31;;;;;;;;;;;5.80;99.90;;;;;;5087069;28;19932;-65
2024/01/05 08:19:57;;;;;;;;;;;5.90;99.90;;;;;;5085729;28;19993;-65
2024/01/05 08:22:25;;;;;;;;;;;5.90;99.90;;;;;;5087346;28;19932;-65
2024/01/05 08:24:53;;;;;;;;;;;5.90;99.90;;;;;;5087420;28;19948;-65
2024/01/05 08:27:19;;;;;;;;;;;5.90;99.90;;;;;;5086586;28;19924;-66
2024/01/05 08:29:46;;;;;;;;;;;5.90;99.90;;;;;;5086467;28;19925;-65
2024/01/05 08:32:12;;;;;;;;;;;5.90;99.90;;;;;;5086119;28;21215;-65
2024/01/05 08:34:39;;;;;;;;;;;5.90;99.90;;;;;;5087451;28;20112;-66
2024/01/05 08:37:06;;;;;;;;;;;6.00;99.90;;;;;;5087170;28;20290;-65
2024/01/05 08:39:32;;;;;;;;;;;6.00;99.90;;;;;;5087383;28;19924;-66
2024/01/05 08:42:00;;;;;;;;;;;6.00;99.90;;;;;;5087293;28;19924;-65
2024/01/05 08:44:27;;;;;;;;;;;6.00;99.90;;;;;;5086954;28;21845;-65
2024/01/05 08:46:54;;;;;;;;;;;6.00;99.90;;;;;;5087278;28;19932;-65
2024/01/05 08:49:20;;;;;;;;;;;6.00;99.90;;;;;;5087818;28;20019;-65
2024/01/05 08:51:47;;;;;;;;;;;6.10;99.90;;;;;;5086705;28;20009;-65
2024/01/05 08:54:13;;;;;;;;;;;6.10;99.90;;;;;;5087515;28;19928;-65
2024/01/05 08:56:40;;;;;;;;;;;6.10;99.90;;;;;;5086314;28;19985;-65
2024/01/05 08:59:08;;;;;;;;;;;6.20;99.90;;;;;;5087170;28;19942;-65
2024/01/05 09:01:34;;;;;;;;;;;6.20;99.90;;;;;;5086161;28;19932;-65
2024/01/05 09:04:01;;;;;;;;;;;6.20;99.90;;;;;;5085889;28;20585;-65
2024/01/05 09:06:28;;;;;;;;;;;6.40;99.90;;;;;;5086089;28;20313;-65
2024/01/05 09:08:55;;;;;;;;;;;6.60;99.90;;;;;;5085990;28;19931;-65
2024/01/05 09:11:21;;;;;;;;;;;6.70;99.90;;;;;;5086425;28;19932;-65
2024/01/05 09:13:47;;;;;;;;;;;6.70;99.90;;;;;;5087016;28;19931;-66
2024/01/05 09:16:15;;;;;;;;;;;6.70;99.90;;;;;;5086888;28;19924;-66
2024/01/05 09:18:42;;;;;;;;;;;6.60;99.90;;;;;;5086481;28;19928;-65
2024/01/05 09:21:10;;;;;;;;;;;6.60;99.90;;;;;;5085872;28;20019;-65
2024/01/05 09:23:37;;;;;;;;;;;6.60;99.90;;;;;;5085531;28;19923;-66
2024/01/05 09:26:03;;;;;;;;;;;6.60;99.90;;;;;;5085852;28;19928;-65
2024/01/05 09:28:30;;;;;;;;;;;6.60;99.90;;;;;;5086780;28;20413;-66
2024/01/05 09:30:56;;;;;;;;;;;6.70;99.90;;;;;;5085443;28;19977;-65
2024/01/05 09:33:24;;;;;;;;;;;6.70;99.90;;;;;;5088283;28;19962;-66
2024/01/05 09:35:50;;;;;;;;;;;6.70;99.90;;;;;;5090329;28;19924;-65
2024/01/05 09:38:17;;;;;;;;;;;6.80;99.90;;;;;;5090067;28;19932;-65
2024/01/05 09:40:44;;;;;;;;;;;6.80;99.90;;;;;;5090647;28;20003;-65
2024/01/05 09:43:12;;;;;;;;;;;6.90;99.90;;;;;;5090374;28;19924;-65
2024/01/05 09:45:38;;;;;;;;;;;7.00;99.90;;;;;;5090716;28;19966;-65
2024/01/05 09:48:06;;;;;;;;;;;7.10;99.90;;;;;;5089899;28;20453;-66
2024/01/05 09:50:34;;;;;;;;;;;7.10;99.90;;;;;;5090327;28;19928;-65
2024/01/05 09:53:01;;;;;;;;;;;7.20;99.90;;;;;;5089330;28;19932;-65
2024/01/05 09:55:27;;;;;;;;;;;7.30;99.90;;;;;;5089365;28;19928;-65
2024/01/05 09:57:54;;;;;;;;;;;7.30;99.90;;;;;;5089002;28;20297;-66
2024/01/05 10:00:21;;;;;;;;;;;7.20;99.90;;;;;;5088045;28;19932;-65
2024/01/05 10:02:51;;;;;;;;;;;7.30;99.90;;;;;;5087926;28;19932;-65
2024/01/05 10:05:18;;;;;;;;;;;7.20;99.90;;;;;;5087989;28;19928;-65
2024/01/05 10:07:45;;;;;;;;;;;7.20;99.90;;;;;;5089389;28;20374;-65
2024/01/05 10:10:12;;;;;;;;;;;7.10;99.90;;;;;;5089288;28;19932;-66
2024/01/05 10:12:39;;;;;;;;;;;7.00;99.90;;;;;;5089650;28;19943;-66
2024/01/05 10:15:06;;;;;;;;;;;6.90;99.90;;;;;;5088711;28;19931;-66
2024/01/05 10:17:33;;;;;;;;;;;6.90;99.90;;;;;;5089717;28;20395;-65
2024/01/05 10:20:09;;;;;;;;;;;6.90;99.90;;;;;;5088473;28;19940;-66
2024/01/05 10:22:36;;;;;;;;;;;6.90;99.90;;;;;;5089107;28;19935;-65
2024/01/05 10:25:15;;;;;;;;;;;6.80;99.90;;;;;;5088882;28;19969;-66
2024/01/05 10:27:41;;;;;;;;;;;6.80;99.90;;;;;;5087405;28;20035;-65
2024/01/05 10:30:10;;;;;;;;;;;6.80;99.90;;;;;;5086878;28;19933;-65
2024/01/05 10:32:36;;;;;;;;;;;6.90;99.90;;;;;;5088411;28;19932;-65
2024/01/05 10:35:03;;;;;;;;;;;6.80;99.90;;;;;;5089479;28;19924;-65
2024/01/05 10:37:30;;;;;;;;;;;6.90;99.90;;;;;;5088780;28;19924;-65
2024/01/05 10:40:01;;;;;;;;;;;7.00;99.90;;;;;;5088555;28;19977;-65
2024/01/05 10:42:29;;;;;;;;;;;7.00;99.90;;;;;;5089320;28;19939;-65
2024/01/05 10:44:57;;;;;;;;;;;7.00;99.90;;;;;;5087723;28;19924;-65
2024/01/05 10:47:25;;;;;;;;;;;7.00;99.90;;;;;;5089211;28;19985;-65
2024/01/05 10:49:52;;;;;;;;;;;7.00;99.90;;;;;;5089388;28;19932;-65
2024/01/05 10:52:19;;;;;;;;;;;7.00;99.90;;;;;;5089341;28;19932;-65
2024/01/05 10:54:47;;;;;;;;;;;7.00;99.90;;;;;;5089046;28;19985;-65
2024/01/05 10:57:14;;;;;;;;;;;7.00;99.90;;;;;;5088610;28;19939;-65
2024/01/05 10:59:44;;;;;;;;;;;7.00;99.90;;;;;;5088680;28;19932;-65
2024/01/05 11:02:15;;;;;;;;;;;7.00;99.90;;;;;;5088842;28;20008;-64
2024/01/05 11:04:43;;;;;;;;;;;6.90;99.90;;;;;;5088793;28;20389;-64
2024/01/05 11:07:10;;;;;;;;;;;6.90;99.90;;;;;;5087923;28;19924;-65
2024/01/05 11:09:48;;;;;;;;;;;6.90;99.90;;;;;;5088135;28;20329;-65
2024/01/05 11:12:22;;;;;;;;;;;6.90;99.90;;;;;;5088084;28;20382;-64
2024/01/05 11:15:05;;;;;;;;;;;6.90;99.90;;;;;;5087926;28;19969;-65
2024/01/05 11:17:40;;;;;;;;;;;6.90;99.90;;;;;;5089054;28;20398;-65
2024/01/05 11:20:16;;;;;;;;;;;6.90;99.90;;;;;;5087961;28;20394;-64
2024/01/05 11:22:45;;;;;;;;;;;6.90;99.90;;;;;;5088305;28;20042;-65
2024/01/05 11:25:13;;;;;;;;;;;6.90;99.90;;;;;;5088569;28;20019;-65
2024/01/05 11:27:45;;;;;;;;;;;6.90;99.90;;;;;;5088325;28;19936;-65
2024/01/05 11:30:13;;;;;;;;;;;7.00;99.90;;;;;;5087585;28;19924;-64
2024/01/05 11:32:42;;;;;;;;;;;7.00;99.90;;;;;;5088326;28;19985;-64
2024/01/05 11:35:28;;;;;;;;;;;7.00;99.90;;;;;;5088015;28;19973;-65
2024/01/05 11:37:55;;;;;;;;;;;7.10;99.90;;;;;;5088493;28;19963;-65
2024/01/05 11:40:27;;;;;;;;;;;7.10;99.90;;;;;;5088464;28;20001;-64
2024/01/05 11:42:54;;;;;;;;;;;7.20;99.90;;;;;;5088296;28;19924;-65
2024/01/05 11:45:35;;;;;;;;;;;7.20;99.90;;;;;;5087912;28;20447;-65
2024/01/05 11:48:04;;;;;;;;;;;7.30;99.90;;;;;;5087248;28;20617;-65
2024/01/05 11:50:32;;;;;;;;;;;7.40;99.90;;;;;;5087935;28;19932;-65
2024/01/05 11:53:12;;;;;;;;;;;7.50;99.90;;;;;;5087830;28;19975;-65
2024/01/05 11:55:41;;;;;;;;;;;7.60;99.90;;;;;;5086734;28;19932;-65
2024/01/05 11:58:08;;;;;;;;;;;7.70;99.90;;;;;;5087058;28;19989;-65
2024/01/05 12:00:35;;;;;;;;;;;7.80;99.90;;;;;;5087678;28;19932;-65
2024/01/05 12:03:01;;;;;;;;;;;7.70;99.90;;;;;;5085791;28;19924;-65
2024/01/05 12:05:29;;;;;;;;;;;7.80;99.90;;;;;;5087777;28;20297;-65
2024/01/05 12:07:56;;;;;;;;;;;7.80;99.90;;;;;;5087821;28;19978;-65
2024/01/05 12:10:24;;;;;;;;;;;7.90;99.90;;;;;;5087260;28;20019;-65
2024/01/05 12:12:51;;;;;;;;;;;7.90;99.90;;;;;;5087535;28;19977;-65
2024/01/05 12:15:18;;;;;;;;;;;7.90;99.90;;;;;;5087487;28;19977;-65
2024/01/05 12:17:44;;;;;;;;;;;7.90;99.90;;;;;;5087673;28;20001;-65
2024/01/05 12:20:11;;;;;;;;;;;8.00;99.90;;;;;;5086886;28;19928;-65
2024/01/05 12:22:39;;;;;;;;;;;8.00;99.90;;;;;;5087710;28;20378;-65
2024/01/05 12:25:06;;;;;;;;;;;8.00;99.90;;;;;;5087059;28;19936;-64
2024/01/05 12:27:35;;;;;;;;;;;8.10;99.90;;;;;;5088303;28;19985;-65
2024/01/05 12:30:02;;;;;;;;;;;8.20;99.90;;;;;;5086050;28;21086;-65
2024/01/05 12:32:31;;;;;;;;;;;8.20;99.90;;;;;;5087900;28;19959;-65
2024/01/05 12:34:57;;;;;;;;;;;8.20;99.90;;;;;;5086987;28;20406;-64
2024/01/05 12:37:24;;;;;;;;;;;8.30;99.90;;;;;;5087973;28;19977;-65
2024/01/05 12:39:52;;;;;;;;;;;8.30;99.90;;;;;;5086647;28;19934;-65
2024/01/05 12:42:18;;;;;;;;;;;8.30;99.90;;;;;;5087528;28;19969;-65
2024/01/05 12:44:45;;;;;;;;;;;8.40;99.90;;;;;;5087876;28;19993;-65
2024/01/05 12:47:12;;;;;;;;;;;8.40;99.90;;;;;;5087603;28;19932;-64
2024/01/05 12:49:38;;;;;;;;;;;8.40;99.90;;;;;;5086976;28;20455;-65
2024/01/05 12:52:08;;;;;;;;;;;8.50;99.90;;;;;;5086032;28;20015;-65
2024/01/05 12:54:41;;;;;;;;;;;8.50;99.90;;;;;;5087030;28;20293;-65
2024/01/05 12:57:09;;;;;;;;;;;8.50;99.90;;;;;;5086907;28;19970;-64
2024/01/05 12:59:36;;;;;;;;;;;8.50;99.90;;;;;;5087100;28;20052;-65
2024/01/05 13:02:05;;;;;;;;;;;8.50;99.90;;;;;;5086763;28;20332;-65
2024/01/05 13:04:34;;;;;;;;;;;8.40;99.90;;;;;;5086998;28;19938;-64
2024/01/05 13:07:00;;;;;;;;;;;8.40;99.90;;;;;;5087138;28;20309;-65
2024/01/05 13:09:27;;;;;;;;;;;8.40;99.90;;;;;;5090235;28;19932;-65
2024/01/05 13:11:53;;;;;;;;;;;8.30;99.90;;;;;;5091148;28;19935;-65
2024/01/05 13:14:21;;;;;;;;;;;8.40;99.90;;;;;;5090612;28;19932;-65
2024/01/05 13:16:48;;;;;;;;;;;8.40;99.90;;;;;;5090276;28;20364;-65
2024/01/05 13:19:15;;;;;;;;;;;8.50;99.90;;;;;;5089900;28;19955;-64
2024/01/05 13:21:41;;;;;;;;;;;8.40;99.90;;;;;;5090488;28;21093;-64
2024/01/05 13:24:08;;;;;;;;;;;8.40;99.90;;;;;;5090387;28;19927;-65
2024/01/05 13:26:35;;;;;;;;;;;8.40;99.90;;;;;;5091061;28;19938;-65
2024/01/05 13:29:01;;;;;;;;;;;8.40;99.90;;;;;;5090631;28;19935;-65
2024/01/05 13:31:29;;;;;;;;;;;8.50;99.90;;;;;;5089302;28;19931;-65
2024/01/05 13:33:56;;;;;;;;;;;8.50;99.90;;;;;;5089915;28;19986;-65
2024/01/05 13:36:22;;;;;;;;;;;8.60;99.90;;;;;;5090322;28;20342;-64
2024/01/05 13:38:49;;;;;;;;;;;8.70;99.90;;;;;;5089894;28;19932;-65
2024/01/05 13:41:15;;;;;;;;;;;8.70;99.90;;;;;;5089791;28;20407;-65
2024/01/05 13:43:42;;;;;;;;;;;8.80;99.90;;;;;;5091908;28;19924;-65
2024/01/05 13:46:09;;;;;;;;;;;8.70;99.90;;;;;;5090414;28;19958;-65
2024/01/05 13:48:36;;;;;;;;;;;8.80;99.90;;;;;;5090243;28;20390;-65
2024/01/05 13:51:03;;;;;;;;;;;8.70;99.90;;;;;;5090179;28;19931;-65
2024/01/05 13:53:29;;;;;;;;;;;8.70;99.90;;;;;;5090209;28;20013;-65
2024/01/05 13:55:57;;;;;;;;;;;8.70;99.90;;;;;;5089761;28;20328;-65
2024/01/05 13:58:24;;;;;;;;;;;8.70;99.90;;;;;;5088986;28;20364;-64
2024/01/05 14:00:50;;;;;;;;;;;8.70;99.90;;;;;;5089595;28;19974;-65
2024/01/05 14:03:17;;;;;;;;;;;8.70;99.90;;;;;;5087911;28;20007;-64
2024/01/05 14:05:45;;;;;;;;;;;8.70;99.90;;;;;;5089491;28;19924;-64
2024/01/05 14:08:11;;;;;;;;;;;8.60;99.90;;;;;;5089271;28;19960;-64
2024/01/05 14:10:38;;;;;;;;;;;8.60;99.90;;;;;;5089697;28;20360;-65
2024/01/05 14:13:04;;;;;;;;;;;8.60;99.90;;;;;;5089347;28;20449;-65
2024/01/05 14:15:31;;;;;;;;;;;8.60;99.90;;;;;;5088386;28;19931;-65
2024/01/05 14:17:57;;;;;;;;;;;8.60;99.90;;;;;;5089511;28;19978;-65
2024/01/05 14:20:24;;;;;;;;;;;8.60;99.90;;;;;;5089043;28;20024;-65
2024/01/05 14:22:52;;;;;;;;;;;8.60;99.90;;;;;;5088849;28;19928;-65
2024/01/05 14:25:18;;;;;;;;;;;8.50;99.90;;;;;;5089130;28;19978;-64
2024/01/05 14:27:45;;;;;;;;;;;8.50;99.90;;;;;;5089202;28;20013;-65
2024/01/05 14:30:12;;;;;;;;;;;8.50;99.90;;;;;;5088814;28;19939;-65